Current Weather

Aurora Muni

Aurora, Illinois (KARR)

Report from: Sunday, February 5, 2023 10:52 PM CST
Current time: Sunday, February 5, 2023 11:45 PM CST

Nearby weather
Weather history
Weather forecast

Present weatherMist
Temperature-7.2°C (19.0°F)
Dew point-8.3°C (17.1°F)
Winds Calm
Visibility6 mi. (9.7 km)
Clouds Sky clear
Altimeter30.14 in.Hg (1021 mB)
Relative humidity92 %
Density altitude-2,959 ft. (-902 m)
Sea-level pressure102.2 kPa (1022 mB, 30.16 in.Hg)
Remarks Fully automated report
Automated weather observing station with precipitation discriminator
Flight conditions Visual Meteorological Conditions
Raw dataKARR 060452Z AUTO 00000KT 6SM BR CLR M07/M08 A3014 RMK AO2 SLP215 T10721083
An error has occurred. This application may no longer respond until reloaded. Reload 🗙